createdAt,value
2019-01-12T00:00:20.968Z,5.50
2019-01-12T00:02:49.406Z,3.80
2019-01-12T00:05:17.872Z,5.60
2019-01-12T00:07:46.308Z,6.50
2019-01-12T00:10:14.909Z,5.80
2019-01-12T00:12:43.353Z,3.47
2019-01-12T00:15:11.948Z,6.50
2019-01-12T00:17:40.388Z,5.80
2019-01-12T00:20:09.380Z,4.20
2019-01-12T00:22:37.828Z,4.13
2019-01-12T00:25:07.686Z,5.37
2019-01-12T00:27:36.152Z,9.30
2019-01-12T00:30:08.015Z,3.30
2019-01-12T00:32:36.532Z,12.80
2019-01-12T00:35:06.123Z,5.67
2019-01-12T00:37:34.929Z,13.20
2019-01-12T00:40:04.628Z,3.60
2019-01-12T00:42:33.087Z,7.77
2019-01-12T00:45:01.797Z,5.90
2019-01-12T00:47:30.345Z,9.20
2019-01-12T00:49:59.123Z,11.03
2019-01-12T00:52:28.007Z,8.80
2019-01-12T00:54:56.829Z,14.80
2019-01-12T00:57:25.578Z,14.47
2019-01-12T00:59:54.029Z,5.60
2019-01-12T01:02:22.478Z,3.30
2019-01-12T01:04:50.988Z,8.80
2019-01-12T01:07:19.719Z,6.33
2019-01-12T01:09:48.152Z,7.80
2019-01-12T01:12:16.606Z,5.53
2019-01-12T01:14:45.035Z,6.87
2019-01-12T01:17:13.821Z,9.90
2019-01-12T01:19:42.247Z,5.10
2019-01-12T01:22:10.709Z,6.53
2019-01-12T01:24:45.554Z,12.67
2019-01-12T01:27:09.325Z,8.40
2019-01-12T01:29:38.100Z,4.77
2019-01-12T01:32:06.569Z,6.03
2019-01-12T01:34:34.999Z,6.03
2019-01-12T01:37:03.472Z,11.37
2019-01-12T01:39:32.248Z,7.03
2019-01-12T01:42:00.789Z,10.17
2019-01-12T01:44:29.233Z,6.67
2019-01-12T01:46:57.965Z,11.87
2019-01-12T01:49:26.416Z,6.80
2019-01-12T01:51:54.850Z,7.87
2019-01-12T01:54:23.308Z,7.90
2019-01-12T01:56:51.745Z,9.50
2019-01-12T01:59:20.265Z,8.17
2019-01-12T02:01:48.848Z,8.23
2019-01-12T02:04:17.371Z,12.93
2019-01-12T02:06:46.101Z,13.70
2019-01-12T02:09:14.843Z,13.50
2019-01-12T02:11:43.280Z,10.40
2019-01-12T02:14:11.749Z,13.53
2019-01-12T02:16:40.206Z,10.33
2019-01-12T02:19:09.007Z,15.60
2019-01-12T02:21:37.529Z,13.40
2019-01-12T02:24:06.289Z,14.77
2019-01-12T02:26:34.776Z,13.97
2019-01-12T02:29:03.357Z,13.67
2019-01-12T02:31:32.172Z,14.70
2019-01-12T02:34:00.622Z,15.23
2019-01-12T02:36:29.080Z,18.70
2019-01-12T02:38:57.812Z,19.73
2019-01-12T02:41:26.284Z,11.93
2019-01-12T02:43:55.981Z,10.70
2019-01-12T02:46:24.443Z,16.37
2019-01-12T02:48:53.265Z,16.67
2019-01-12T02:51:21.957Z,13.00
2019-01-12T02:53:50.436Z,12.90
2019-01-12T02:56:18.945Z,16.00
2019-01-12T02:58:47.668Z,13.93
2019-01-12T03:01:16.268Z,13.03
2019-01-12T03:03:45.016Z,11.63
2019-01-12T03:06:13.536Z,11.17
2019-01-12T03:08:42.005Z,9.10
2019-01-12T03:11:10.472Z,12.50
2019-01-12T03:13:38.910Z,11.40
2019-01-12T03:16:07.651Z,12.00
2019-01-12T03:18:36.111Z,15.67
2019-01-12T03:21:04.708Z,11.87
2019-01-12T03:23:33.156Z,11.27
2019-01-12T03:26:01.627Z,17.53
2019-01-12T03:28:30.382Z,14.80
2019-01-12T03:30:58.846Z,16.77
2019-01-12T03:33:27.284Z,13.60
2019-01-12T03:35:55.827Z,18.10
2019-01-12T03:38:24.274Z,14.10
2019-01-12T03:40:53.036Z,14.37
2019-01-12T03:43:21.758Z,18.50
2019-01-12T03:45:50.592Z,16.53
2019-01-12T03:48:19.280Z,14.97
2019-01-12T03:50:48.039Z,15.20
2019-01-12T03:53:16.809Z,14.90
2019-01-12T03:55:45.308Z,14.60
2019-01-12T03:58:14.065Z,14.13
2019-01-12T04:00:42.524Z,15.90
2019-01-12T04:03:11.266Z,13.13
2019-01-12T04:05:40.000Z,19.70
2019-01-12T04:08:08.452Z,14.20
2019-01-12T04:10:36.910Z,12.83
2019-01-12T04:13:05.739Z,12.77
2019-01-12T04:15:34.322Z,10.60
2019-01-12T04:18:02.937Z,15.00
2019-01-12T04:20:31.416Z,17.50
2019-01-12T04:22:59.940Z,16.53
2019-01-12T04:25:33.527Z,15.17
2019-01-12T04:27:58.916Z,18.20
2019-01-12T04:30:27.441Z,16.13
2019-01-12T04:32:56.262Z,16.70
2019-01-12T04:35:24.730Z,13.30
2019-01-12T04:37:53.239Z,14.97
2019-01-12T04:40:21.705Z,13.90
2019-01-12T04:42:50.446Z,14.50
2019-01-12T04:45:18.939Z,15.40
2019-01-12T04:47:47.398Z,11.60
2019-01-12T04:50:16.200Z,11.83
2019-01-12T04:52:44.738Z,13.27
2019-01-12T04:55:14.110Z,13.50
2019-01-12T04:57:42.674Z,13.73
2019-01-12T05:00:16.013Z,12.03
2019-01-12T05:02:44.548Z,9.57
2019-01-12T05:05:13.351Z,15.23
2019-01-12T05:07:41.883Z,9.40
2019-01-12T05:10:11.867Z,11.53
2019-01-12T05:12:40.593Z,12.47
2019-01-12T05:15:11.552Z,11.27
2019-01-12T05:17:40.426Z,14.03
2019-01-12T05:20:18.744Z,12.47
2019-01-12T05:22:47.720Z,12.70
2019-01-12T05:25:16.332Z,14.43
2019-01-12T05:27:44.748Z,13.90
2019-01-12T05:30:17.133Z,16.57
2019-01-12T05:32:45.761Z,10.90
2019-01-12T05:35:14.229Z,11.43
2019-01-12T05:37:43.090Z,11.57
2019-01-12T05:40:12.047Z,11.00
2019-01-12T05:42:40.484Z,8.57
2019-01-12T05:45:11.086Z,12.43
2019-01-12T05:47:39.518Z,11.10
2019-01-12T05:50:10.353Z,9.93
2019-01-12T05:52:39.015Z,9.60
2019-01-12T05:55:08.349Z,17.90
2019-01-12T05:57:36.929Z,13.60
2019-01-12T06:00:08.733Z,13.50
2019-01-12T06:02:37.254Z,12.23
2019-01-12T06:05:06.037Z,10.17
2019-01-12T06:07:34.452Z,11.00
2019-01-12T06:10:06.046Z,13.33
2019-01-12T06:12:34.780Z,12.97
2019-01-12T06:15:04.500Z,17.00
2019-01-12T06:17:33.240Z,13.90
2019-01-12T06:20:01.684Z,18.50
2019-01-12T06:22:30.495Z,19.70
2019-01-12T06:24:59.006Z,20.00
2019-01-12T06:27:27.488Z,22.80
2019-01-12T06:29:55.947Z,18.77
2019-01-12T06:32:24.410Z,26.30
2019-01-12T06:34:52.904Z,18.00
2019-01-12T06:37:21.377Z,21.17
2019-01-12T06:39:49.895Z,19.83
2019-01-12T06:42:18.660Z,20.27
2019-01-12T06:44:47.190Z,23.40
2019-01-12T06:47:15.649Z,24.27
2019-01-12T06:49:44.379Z,26.37
2019-01-12T06:52:13.118Z,24.77
2019-01-12T06:54:41.916Z,22.97
2019-01-12T06:57:10.549Z,20.50
2019-01-12T06:59:39.031Z,24.23
2019-01-12T07:02:07.577Z,26.93
2019-01-12T07:04:36.081Z,26.50
2019-01-12T07:07:04.821Z,22.30
2019-01-12T07:09:33.387Z,20.63
2019-01-12T07:12:01.895Z,20.87
2019-01-12T07:14:30.458Z,24.63
2019-01-12T07:16:58.975Z,21.30
2019-01-12T07:19:27.801Z,23.23
2019-01-12T07:21:56.259Z,20.20
2019-01-12T07:24:25.036Z,29.27
2019-01-12T07:26:53.639Z,21.20
2019-01-12T07:29:22.447Z,20.13
2019-01-12T07:31:50.954Z,25.53
2019-01-12T07:34:19.496Z,23.73
2019-01-12T07:36:47.934Z,22.90
2019-01-12T07:39:16.399Z,26.83
2019-01-12T07:41:44.841Z,24.80
2019-01-12T07:44:13.603Z,24.33
2019-01-12T07:46:42.147Z,26.47
2019-01-12T07:49:10.616Z,23.37
2019-01-12T07:51:39.136Z,30.83
2019-01-12T07:54:07.596Z,20.73
2019-01-12T07:56:36.049Z,24.80
2019-01-12T07:59:04.574Z,26.53
2019-01-12T08:01:33.016Z,26.50
2019-01-12T08:04:01.512Z,28.90
2019-01-12T08:06:29.954Z,27.53
2019-01-12T08:08:58.431Z,25.57
2019-01-12T08:11:26.937Z,29.97
2019-01-12T08:13:57.039Z,30.20
2019-01-12T08:16:25.562Z,33.63
2019-01-12T08:18:54.078Z,27.10
2019-01-12T08:21:22.604Z,28.10
2019-01-12T08:23:51.095Z,27.10
2019-01-12T08:26:19.592Z,28.60
2019-01-12T08:28:48.302Z,29.67
2019-01-12T08:31:17.079Z,26.10
2019-01-12T08:33:45.525Z,32.50
2019-01-12T08:36:21.517Z,28.20
2019-01-12T08:38:49.981Z,34.77
2019-01-12T08:41:19.245Z,29.43
2019-01-12T08:43:47.948Z,34.60
2019-01-12T08:46:16.540Z,30.97
2019-01-12T08:48:45.103Z,33.30
2019-01-12T08:51:13.761Z,33.70
2019-01-12T08:53:42.553Z,25.20
2019-01-12T08:56:11.219Z,34.03
2019-01-12T08:58:39.766Z,33.07
2019-01-12T09:01:08.474Z,29.90
2019-01-12T09:03:37.236Z,29.00
2019-01-12T09:06:05.998Z,28.97
2019-01-12T09:08:34.735Z,33.87
2019-01-12T09:11:03.423Z,29.13
2019-01-12T09:13:32.252Z,32.43
2019-01-12T09:16:00.798Z,30.13
2019-01-12T09:18:29.251Z,33.67
2019-01-12T09:20:57.738Z,29.57
2019-01-12T09:23:26.420Z,34.60
2019-01-12T09:25:54.969Z,34.47
2019-01-12T09:28:23.592Z,34.10
2019-01-12T09:30:52.346Z,34.73
2019-01-12T09:33:20.914Z,35.90
2019-01-12T09:35:49.721Z,35.20
2019-01-12T09:38:21.023Z,34.03
2019-01-12T09:40:51.135Z,35.87
2019-01-12T09:43:19.706Z,37.50
2019-01-12T09:45:48.370Z,42.13
2019-01-12T09:48:18.745Z,44.97
2019-01-12T09:50:47.302Z,40.10
2019-01-12T09:53:15.885Z,34.77
2019-01-12T09:55:46.018Z,43.90
2019-01-12T09:58:14.624Z,40.65
2019-01-12T10:00:43.055Z,39.23
2019-01-12T10:03:11.779Z,35.27
2019-01-12T10:05:40.388Z,46.07
2019-01-12T10:08:08.939Z,40.43
2019-01-12T10:10:37.413Z,36.03
2019-01-12T10:13:06.235Z,36.70
2019-01-12T10:15:34.843Z,40.77
2019-01-12T10:18:03.772Z,40.77
2019-01-12T10:20:32.290Z,41.37
2019-01-12T10:23:00.826Z,37.90
2019-01-12T10:25:29.471Z,38.70
2019-01-12T10:27:58.237Z,38.83
2019-01-12T10:30:27.145Z,43.40
2019-01-12T10:32:56.136Z,42.87
2019-01-12T10:35:24.778Z,39.17
2019-01-12T10:37:53.903Z,41.50
2019-01-12T10:40:22.438Z,42.10
2019-01-12T10:42:51.173Z,39.37
2019-01-12T10:45:21.772Z,43.17
2019-01-12T10:47:50.456Z,40.93
2019-01-12T10:50:24.823Z,39.27
2019-01-12T10:52:53.572Z,46.63
2019-01-12T10:55:22.184Z,41.33
2019-01-12T10:57:50.839Z,48.93
2019-01-12T11:00:25.139Z,43.90
2019-01-12T11:02:53.755Z,37.27
2019-01-12T11:05:22.529Z,49.83
2019-01-12T11:07:51.037Z,43.00
2019-01-12T11:10:19.847Z,45.57
2019-01-12T11:12:48.480Z,51.10
2019-01-12T11:15:19.864Z,46.93
2019-01-12T11:17:48.664Z,46.73
2019-01-12T11:20:17.625Z,44.93
2019-01-12T11:22:46.292Z,43.87
2019-01-12T11:25:15.689Z,46.33
2019-01-12T11:27:44.210Z,49.30
2019-01-12T11:30:18.197Z,43.40
2019-01-12T11:32:47.062Z,41.20
2019-01-12T11:35:22.979Z,46.17
2019-01-12T11:37:51.454Z,46.13
2019-01-12T11:40:21.710Z,43.17
2019-01-12T11:42:51.210Z,46.13
2019-01-12T11:45:20.765Z,42.47
2019-01-12T11:47:49.812Z,40.80
2019-01-12T11:50:18.484Z,40.83
2019-01-12T11:52:47.216Z,44.23
2019-01-12T11:55:18.004Z,47.20
2019-01-12T11:57:46.485Z,40.23
2019-01-12T12:00:25.501Z,36.93
2019-01-12T12:02:54.601Z,43.37
2019-01-12T12:05:23.944Z,44.97
2019-01-12T12:07:53.033Z,46.97
2019-01-12T12:10:21.956Z,39.37
2019-01-12T12:12:50.948Z,41.87
2019-01-12T12:15:20.955Z,39.60
2019-01-12T12:17:49.676Z,38.57
2019-01-12T12:20:20.416Z,44.00
2019-01-12T12:22:49.160Z,41.03
2019-01-12T12:25:17.690Z,38.20
2019-01-12T12:27:46.233Z,46.90
2019-01-12T12:30:22.749Z,38.63
2019-01-12T12:32:51.355Z,33.40
2019-01-12T12:35:20.175Z,41.20
2019-01-12T12:37:48.806Z,37.03
2019-01-12T12:40:19.390Z,37.07
2019-01-12T12:42:47.876Z,36.57
2019-01-12T12:45:18.700Z,39.00
2019-01-12T12:47:47.255Z,32.93
2019-01-12T12:50:16.747Z,34.60
2019-01-12T12:52:45.385Z,37.30
2019-01-12T12:55:15.966Z,35.50
2019-01-12T12:57:45.340Z,31.47
2019-01-12T13:00:22.342Z,31.80
2019-01-12T13:02:50.886Z,32.40
2019-01-12T13:05:19.423Z,31.73
2019-01-12T13:07:48.061Z,29.53
2019-01-12T13:10:19.196Z,31.13
2019-01-12T13:12:48.096Z,34.10
2019-01-12T13:15:17.114Z,29.73
2019-01-12T13:17:45.949Z,29.80
2019-01-12T13:20:20.419Z,30.30
2019-01-12T13:22:49.454Z,30.33
2019-01-12T13:25:18.299Z,25.90
2019-01-12T13:27:46.996Z,26.83
2019-01-12T13:30:18.662Z,27.83
2019-01-12T13:32:47.244Z,26.87
2019-01-12T13:35:16.005Z,27.50
2019-01-12T13:37:44.610Z,26.10
2019-01-12T13:40:21.727Z,27.87
2019-01-12T13:42:50.685Z,25.83
2019-01-12T13:45:20.392Z,25.43
2019-01-12T13:47:49.016Z,23.73
2019-01-12T13:50:20.202Z,25.93
2019-01-12T13:52:48.928Z,23.20
2019-01-12T13:55:17.598Z,26.70
2019-01-12T13:57:47.731Z,27.13
2019-01-12T14:00:30.941Z,24.60
2019-01-12T14:02:59.447Z,26.53
2019-01-12T14:05:28.173Z,24.00
2019-01-12T14:07:57.339Z,20.37
2019-01-12T14:10:26.264Z,19.27
2019-01-12T14:12:55.997Z,21.53
2019-01-12T14:15:39.791Z,22.40
2019-01-12T14:18:08.680Z,21.20
2019-01-12T14:20:37.909Z,21.40
2019-01-12T14:23:06.827Z,19.40
2019-01-12T14:25:35.856Z,18.50
2019-01-12T14:28:04.755Z,20.77
2019-01-12T14:30:33.241Z,22.80
2019-01-12T14:33:01.761Z,20.10
2019-01-12T14:35:30.246Z,22.10
2019-01-12T14:37:59.039Z,24.50
2019-01-12T14:40:27.507Z,20.93
2019-01-12T14:42:56.029Z,19.00
2019-01-12T14:45:27.340Z,18.80
2019-01-12T14:47:56.128Z,18.90
2019-01-12T14:50:24.784Z,19.80
2019-01-12T14:52:53.356Z,22.23
2019-01-12T14:55:22.899Z,21.07
2019-01-12T14:57:52.144Z,17.10
2019-01-12T15:00:23.415Z,18.00
2019-01-12T15:02:52.157Z,16.73
2019-01-12T15:05:25.829Z,19.13
2019-01-12T15:07:54.458Z,16.20
2019-01-12T15:10:23.007Z,15.83
2019-01-12T15:12:51.926Z,16.07
2019-01-12T15:15:20.757Z,15.87
2019-01-12T15:17:49.315Z,14.50
2019-01-12T15:20:23.014Z,16.97
2019-01-12T15:22:51.520Z,13.70
2019-01-12T15:25:20.817Z,15.20
2019-01-12T15:27:49.351Z,16.33
2019-01-12T15:30:20.515Z,18.03
2019-01-12T15:32:50.665Z,14.60
2019-01-12T15:35:19.939Z,16.10
2019-01-12T15:37:48.541Z,16.30
2019-01-12T15:40:18.825Z,18.60
2019-01-12T15:42:47.371Z,17.70
2019-01-12T15:45:18.760Z,17.83
2019-01-12T15:47:47.614Z,18.03
2019-01-12T15:50:18.313Z,17.13
2019-01-12T15:52:46.853Z,16.67
2019-01-12T15:55:15.650Z,17.30
2019-01-12T15:57:44.248Z,17.13
2019-01-12T16:00:24.287Z,24.53
2019-01-12T16:02:53.134Z,23.50
2019-01-12T16:05:21.997Z,19.00
2019-01-12T16:07:50.522Z,19.70
2019-01-12T16:10:19.496Z,21.03
2019-01-12T16:12:48.051Z,20.37
2019-01-12T16:15:19.605Z,18.50
2019-01-12T16:17:48.976Z,23.43
2019-01-12T16:20:29.112Z,21.60
2019-01-12T16:22:57.604Z,19.70
2019-01-12T16:25:26.506Z,19.70
2019-01-12T16:27:55.393Z,16.97
2019-01-12T16:30:23.925Z,19.70
2019-01-12T16:32:52.474Z,18.27
2019-01-12T16:35:20.982Z,16.30
2019-01-12T16:37:49.854Z,15.47
2019-01-12T16:40:23.800Z,15.57
2019-01-12T16:42:52.359Z,15.93
2019-01-12T16:45:21.149Z,19.43
2019-01-12T16:47:49.784Z,20.27
2019-01-12T16:50:18.703Z,14.60
2019-01-12T16:52:47.265Z,13.97
2019-01-12T16:55:16.945Z,23.40
2019-01-12T16:57:45.784Z,14.43
2019-01-12T17:00:17.920Z,15.97
2019-01-12T17:02:46.563Z,16.33
2019-01-12T17:05:15.086Z,17.10
2019-01-12T17:07:43.763Z,18.40
2019-01-12T17:10:17.521Z,17.50
2019-01-12T17:12:46.172Z,15.83
2019-01-12T17:15:16.787Z,18.33
2019-01-12T17:17:45.600Z,20.27
2019-01-12T17:20:17.371Z,15.40
2019-01-12T17:22:47.189Z,16.23
2019-01-12T17:25:16.148Z,13.40
2019-01-12T17:27:44.815Z,18.53
2019-01-12T17:30:16.330Z,13.27
2019-01-12T17:32:45.429Z,16.87
2019-01-12T17:35:15.337Z,16.13
2019-01-12T17:37:44.869Z,18.83
2019-01-12T17:40:14.861Z,13.43
2019-01-12T17:42:43.766Z,15.40
2019-01-12T17:45:17.785Z,13.40
2019-01-12T17:47:46.579Z,8.87
2019-01-12T17:50:20.411Z,13.37
2019-01-12T17:52:49.236Z,14.47
2019-01-12T17:55:19.722Z,11.17
2019-01-12T17:57:48.439Z,11.67
2019-01-12T18:00:20.909Z,13.87
2019-01-12T18:02:49.665Z,11.23
2019-01-12T18:05:20.386Z,13.60
2019-01-12T18:07:49.074Z,11.13
2019-01-12T18:10:17.862Z,13.60
2019-01-12T18:12:46.562Z,14.30
2019-01-12T18:15:15.874Z,26.57
2019-01-12T18:17:44.954Z,13.87
2019-01-12T18:20:15.873Z,13.63
2019-01-12T18:22:45.173Z,14.20
2019-01-12T18:25:14.738Z,14.57
2019-01-12T18:27:43.421Z,21.00
2019-01-12T18:30:20.697Z,20.77
2019-01-12T18:32:49.338Z,14.37
2019-01-12T18:35:17.944Z,20.83
2019-01-12T18:37:46.818Z,20.30
2019-01-12T18:40:17.544Z,23.67
2019-01-12T18:42:46.433Z,16.63
2019-01-12T18:45:17.538Z,16.03
2019-01-12T18:47:51.376Z,18.80
2019-01-12T18:50:20.339Z,13.80
2019-01-12T18:52:49.181Z,15.07
2019-01-12T18:55:18.116Z,17.60
2019-01-12T18:57:46.943Z,17.43
2019-01-12T19:00:24.056Z,12.90
2019-01-12T19:02:52.807Z,17.00
2019-01-12T19:05:21.562Z,11.40
2019-01-12T19:07:50.179Z,13.40
2019-01-12T19:10:18.725Z,10.37
2019-01-12T19:12:47.842Z,12.40
2019-01-12T19:15:25.097Z,12.60
2019-01-12T19:17:54.210Z,12.73
2019-01-12T19:20:22.950Z,12.43
2019-01-12T19:22:51.804Z,15.50
2019-01-12T19:25:20.412Z,17.67
2019-01-12T19:27:48.980Z,18.60
2019-01-12T19:30:22.246Z,13.07
2019-01-12T19:32:51.049Z,14.70
2019-01-12T19:35:19.633Z,18.87
2019-01-12T19:37:48.204Z,14.23
2019-01-12T19:40:21.630Z,14.30
2019-01-12T19:42:50.329Z,16.13
2019-01-12T19:45:19.298Z,13.10
2019-01-12T19:47:48.215Z,15.50
2019-01-12T19:50:19.166Z,20.40
2019-01-12T19:52:48.231Z,17.97
2019-01-12T19:55:17.124Z,14.77
2019-01-12T19:57:46.124Z,15.03
2019-01-12T20:00:20.053Z,15.07
2019-01-12T20:02:48.816Z,16.53
2019-01-12T20:05:17.720Z,22.23
2019-01-12T20:07:46.413Z,12.90
2019-01-12T20:10:16.717Z,10.80
2019-01-12T20:12:45.523Z,13.27
2019-01-12T20:15:19.868Z,10.50
2019-01-12T20:17:48.591Z,16.10
2019-01-12T20:20:18.070Z,10.20
2019-01-12T20:22:47.152Z,9.53
2019-01-12T20:25:21.570Z,15.03
2019-01-12T20:27:50.276Z,9.70
2019-01-12T20:30:24.418Z,14.33
2019-01-12T20:33:16.870Z,11.33
2019-01-12T20:36:07.771Z,14.80
2019-01-12T20:38:39.310Z,10.67
2019-01-12T20:41:11.828Z,11.70
2019-01-12T20:43:46.426Z,8.97
2019-01-12T20:46:27.115Z,12.13
2019-01-12T20:49:01.398Z,11.30
2019-01-12T20:51:53.936Z,9.27
2019-01-12T20:54:31.500Z,11.87
2019-01-12T20:57:03.494Z,13.50
2019-01-12T20:59:35.611Z,12.07
2019-01-12T21:02:19.278Z,13.80
2019-01-12T21:05:07.207Z,13.17
2019-01-12T21:07:43.361Z,16.17
2019-01-12T21:10:15.179Z,16.30
2019-01-12T21:12:58.551Z,14.40
2019-01-12T21:15:30.562Z,19.80
2019-01-12T21:17:59.633Z,14.50
2019-01-12T21:20:28.551Z,12.40
2019-01-12T21:22:57.238Z,12.53
2019-01-12T21:25:26.149Z,15.47
2019-01-12T21:27:55.613Z,16.53
2019-01-12T21:30:24.203Z,21.87
2019-01-12T21:32:52.945Z,13.93
2019-01-12T21:35:21.477Z,22.40
2019-01-12T21:37:49.945Z,13.43
2019-01-12T21:40:19.485Z,25.93
2019-01-12T21:42:48.083Z,20.63
2019-01-12T21:45:24.118Z,15.33
2019-01-12T21:47:52.735Z,18.50
2019-01-12T21:50:21.883Z,16.80
2019-01-12T21:52:50.960Z,13.23
2019-01-12T21:55:21.224Z,22.20
2019-01-12T21:57:50.357Z,21.13
2019-01-12T22:00:21.950Z,13.70
2019-01-12T22:02:50.644Z,13.83
2019-01-12T22:05:19.177Z,11.50
2019-01-12T22:07:47.750Z,12.13
2019-01-12T22:10:19.340Z,15.07
2019-01-12T22:12:47.599Z,10.57
2019-01-12T22:15:17.032Z,18.37
2019-01-12T22:17:45.567Z,21.90
2019-01-12T22:20:16.342Z,18.40
2019-01-12T22:22:44.981Z,25.83
2019-01-12T22:25:13.590Z,15.20
2019-01-12T22:27:42.375Z,18.73
2019-01-12T22:30:14.224Z,15.47
2019-01-12T22:32:42.759Z,19.60
2019-01-12T22:35:11.322Z,17.73
2019-01-12T22:37:40.116Z,20.83
2019-01-12T22:40:14.616Z,20.57
2019-01-12T22:42:43.360Z,20.63
2019-01-12T22:45:12.068Z,19.60
2019-01-12T22:47:40.684Z,16.63
2019-01-12T22:50:14.949Z,20.20
2019-01-12T22:52:43.735Z,17.63
2019-01-12T22:55:13.771Z,18.50
2019-01-12T22:57:42.765Z,16.80
2019-01-12T23:00:22.773Z,20.90
2019-01-12T23:02:51.448Z,17.73
2019-01-12T23:05:20.425Z,20.50
2019-01-12T23:07:49.251Z,17.53
2019-01-12T23:10:18.026Z,17.80
2019-01-12T23:12:46.922Z,16.20
2019-01-12T23:15:15.949Z,19.67
2019-01-12T23:17:44.896Z,21.60
2019-01-12T23:20:13.787Z,18.70
2019-01-12T23:22:42.451Z,17.10
2019-01-12T23:25:11.231Z,21.57
2019-01-12T23:27:40.134Z,23.37
2019-01-12T23:30:12.231Z,20.70
2019-01-12T23:32:40.828Z,19.33
2019-01-12T23:35:10.852Z,22.23
2019-01-12T23:37:39.505Z,23.40
2019-01-12T23:40:11.849Z,19.30
2019-01-12T23:42:40.624Z,24.33
2019-01-12T23:45:14.151Z,23.00
2019-01-12T23:47:42.751Z,21.50
2019-01-12T23:50:15.068Z,23.63
2019-01-12T23:52:43.632Z,19.70
2019-01-12T23:55:12.720Z,17.20
2019-01-12T23:57:41.528Z,22.27
